createdAt,value
2023-04-14T00:00:37.957Z,99038.44
2023-04-14T00:03:04.677Z,99046.16
2023-04-14T00:05:32.123Z,99043.03
2023-04-14T00:07:58.904Z,99050.75
2023-04-14T00:10:26.941Z,99045.94
2023-04-14T00:12:53.769Z,99035.91
2023-04-14T00:15:20.862Z,99040.50
2023-04-14T00:17:47.582Z,99039.25
2023-04-14T00:20:15.890Z,99048.88
2023-04-14T00:22:42.582Z,99044.28
2023-04-14T00:25:09.612Z,99045.09
2023-04-14T00:27:37.711Z,99052.00
2023-04-14T00:30:04.908Z,99048.88
2023-04-14T00:32:31.605Z,99054.31
2023-04-14T00:34:58.341Z,99049.28
2023-04-14T00:37:24.959Z,99056.78
2023-04-14T00:39:51.618Z,99049.25
2023-04-14T00:42:18.263Z,99049.88
2023-04-14T00:44:46.334Z,99043.84
2023-04-14T00:47:13.111Z,99046.13
2023-04-14T00:49:40.035Z,99045.09
2023-04-14T00:52:06.817Z,99046.75
2023-04-14T00:54:34.844Z,99051.34
2023-04-14T00:57:02.735Z,99051.56
2023-04-14T00:59:29.519Z,99054.28
2023-04-14T01:01:58.173Z,99054.47
2023-04-14T01:04:33.684Z,99047.81
2023-04-14T01:07:07.575Z,99045.94
2023-04-14T01:09:34.497Z,99040.75
2023-04-14T01:12:12.001Z,99036.38
2023-04-14T01:14:44.841Z,99033.00
2023-04-14T01:17:19.862Z,99036.13
2023-04-14T01:20:06.073Z,99032.78
2023-04-14T01:22:37.784Z,99037.59
2023-04-14T01:25:27.978Z,99031.13
2023-04-14T01:28:14.036Z,99035.28
2023-04-14T01:30:57.290Z,99037.16
2023-04-14T01:33:30.307Z,99039.06
2023-04-14T01:36:03.961Z,99037.19
2023-04-14T01:38:33.866Z,99029.88
2023-04-14T01:41:05.301Z,99026.53
2023-04-14T01:43:34.178Z,99025.47
2023-04-14T01:46:05.141Z,99034.06
2023-04-14T01:48:33.898Z,99023.81
2023-04-14T01:51:02.374Z,99030.72
2023-04-14T01:53:32.617Z,99029.03
2023-04-14T01:56:01.549Z,99031.09
2023-04-14T01:58:28.921Z,99024.22
2023-04-14T02:00:57.048Z,99023.00
2023-04-14T02:03:25.642Z,99031.13
2023-04-14T02:05:55.682Z,99034.66
2023-04-14T02:08:24.354Z,99029.84
2023-04-14T02:10:54.880Z,99025.69
2023-04-14T02:13:23.932Z,99022.97
2023-04-14T02:15:51.863Z,99015.25
2023-04-14T02:18:19.791Z,99025.50
2023-04-14T02:20:48.548Z,99024.25
2023-04-14T02:23:16.546Z,99027.78
2023-04-14T02:25:52.033Z,99020.69
2023-04-14T02:28:21.408Z,99011.94
2023-04-14T02:30:51.494Z,99018.59
2023-04-14T02:33:21.808Z,99016.72
2023-04-14T02:35:58.280Z,99015.28
2023-04-14T02:38:34.886Z,99009.84
2023-04-14T02:41:07.276Z,99007.34
2023-04-14T02:43:44.047Z,99007.94
2023-04-14T02:46:16.400Z,99012.09
2023-04-14T02:48:44.813Z,99011.47
2023-04-14T02:51:14.458Z,99007.75
2023-04-14T02:53:42.804Z,99009.19
2023-04-14T02:56:09.932Z,99002.72
2023-04-14T02:58:37.640Z,98991.03
2023-04-14T03:01:05.458Z,98991.69
2023-04-14T03:03:32.769Z,98995.59
2023-04-14T03:05:59.899Z,98996.88
2023-04-14T03:08:27.984Z,98988.06
2023-04-14T03:10:57.142Z,98993.06
2023-04-14T03:13:28.219Z,98986.59
2023-04-14T03:15:56.408Z,98992.63
2023-04-14T03:18:24.164Z,98985.28
2023-04-14T03:20:51.513Z,98983.56
2023-04-14T03:23:21.283Z,98992.13
2023-04-14T03:25:48.516Z,98987.97
2023-04-14T03:28:20.279Z,98984.25
2023-04-14T03:30:51.222Z,98986.47
2023-04-14T03:33:23.455Z,98984.81
2023-04-14T03:35:52.844Z,98980.03
2023-04-14T03:38:20.603Z,98980.03
2023-04-14T03:40:48.148Z,98990.28
2023-04-14T03:43:17.501Z,98971.06
2023-04-14T03:45:44.411Z,98972.97
2023-04-14T03:48:15.198Z,98968.38
2023-04-14T03:50:43.423Z,98974.66
2023-04-14T03:53:11.321Z,98965.91
2023-04-14T03:55:40.495Z,98962.94
2023-04-14T03:58:11.958Z,98961.69
2023-04-14T04:00:41.392Z,98962.75
2023-04-14T04:03:09.852Z,98963.97
2023-04-14T04:05:38.092Z,98960.44
2023-04-14T04:08:06.695Z,98959.41
2023-04-14T04:10:34.666Z,98956.63
2023-04-14T04:13:02.343Z,98947.06
2023-04-14T04:15:31.593Z,98942.84
2023-04-14T04:18:00.387Z,98950.84
2023-04-14T04:20:30.605Z,98946.47
2023-04-14T04:23:00.910Z,98941.50
2023-04-14T04:25:27.470Z,98944.41
2023-04-14T04:27:54.306Z,98947.13
2023-04-14T04:30:24.001Z,98947.13
2023-04-14T04:32:50.882Z,98955.28
2023-04-14T04:35:20.976Z,98950.88
2023-04-14T04:37:48.854Z,98945.91
2023-04-14T04:40:15.640Z,98947.16
2023-04-14T04:42:42.346Z,98948.00
2023-04-14T04:45:10.049Z,98943.66
2023-04-14T04:47:36.728Z,98933.44
2023-04-14T04:50:03.749Z,98938.81
2023-04-14T04:52:31.728Z,98931.13
2023-04-14T04:54:58.342Z,98929.88
2023-04-14T04:57:24.978Z,98934.03
2023-04-14T04:59:51.619Z,98930.28
2023-04-14T05:02:18.255Z,98918.41
2023-04-14T05:04:45.068Z,98930.50
2023-04-14T05:07:11.707Z,98922.13
2023-04-14T05:09:39.770Z,98931.53
2023-04-14T05:12:06.781Z,98934.91
2023-04-14T05:14:33.330Z,98929.03
2023-04-14T05:16:59.921Z,98931.13
2023-04-14T05:19:26.528Z,98933.22
2023-04-14T05:21:53.142Z,98923.81
2023-04-14T05:24:20.747Z,98930.91
2023-04-14T05:27:09.462Z,98925.44
2023-04-14T05:29:35.252Z,98923.59
2023-04-14T05:32:02.870Z,98926.94
2023-04-14T05:34:29.496Z,98922.53
2023-04-14T05:36:56.061Z,98924.69
2023-04-14T05:39:22.739Z,98925.66
2023-04-14T05:41:56.557Z,98916.53
2023-04-14T05:44:23.233Z,98911.53
2023-04-14T05:46:50.932Z,98915.50
2023-04-14T05:49:17.650Z,98917.59
2023-04-14T05:51:44.283Z,98928.47
2023-04-14T05:54:10.900Z,98924.72
2023-04-14T05:56:37.520Z,98921.97
2023-04-14T05:59:05.616Z,98922.22
2023-04-14T06:01:32.328Z,98913.44
2023-04-14T06:03:59.155Z,98921.78
2023-04-14T06:06:27.217Z,98923.66
2023-04-14T06:08:53.783Z,98925.72
2023-04-14T06:11:20.428Z,98923.66
2023-04-14T06:13:47.036Z,98934.47
2023-04-14T06:16:16.195Z,98939.19
2023-04-14T06:18:43.001Z,98940.22
2023-04-14T06:21:09.691Z,98941.25
2023-04-14T06:23:36.267Z,98939.13
2023-04-14T06:26:03.619Z,98933.44
2023-04-14T06:28:30.177Z,98937.16
2023-04-14T06:30:56.874Z,98942.09
2023-04-14T06:33:24.980Z,98944.53
2023-04-14T06:35:51.652Z,98941.94
2023-04-14T06:38:19.036Z,98954.63
2023-04-14T06:40:45.678Z,98944.09
2023-04-14T06:43:12.234Z,98951.16
2023-04-14T06:45:38.883Z,98945.84
2023-04-14T06:48:07.537Z,98953.28
2023-04-14T06:50:36.638Z,98961.75
2023-04-14T06:53:03.248Z,98962.16
2023-04-14T06:55:29.849Z,98961.47
2023-04-14T06:57:56.408Z,98967.50
2023-04-14T07:00:23.487Z,98963.81
2023-04-14T07:02:50.150Z,98960.06
2023-04-14T07:05:16.841Z,98961.25
2023-04-14T07:07:44.925Z,98965.03
2023-04-14T07:10:11.514Z,98960.91
2023-04-14T07:12:38.167Z,98963.34
2023-04-14T07:15:06.637Z,98963.16
2023-04-14T07:17:35.825Z,98957.16
2023-04-14T07:20:02.664Z,98953.22
2023-04-14T07:22:29.228Z,98953.19
2023-04-14T07:24:57.341Z,98950.50
2023-04-14T07:27:25.934Z,98949.50
2023-04-14T07:29:52.531Z,98954.00
2023-04-14T07:32:19.124Z,98959.16
2023-04-14T07:34:46.728Z,98962.00
2023-04-14T07:37:13.324Z,98962.50
2023-04-14T07:39:40.235Z,98956.63
2023-04-14T07:42:08.220Z,98962.16
2023-04-14T07:44:34.973Z,98959.00
2023-04-14T07:47:02.562Z,98963.31
2023-04-14T07:49:29.146Z,98964.22
2023-04-14T07:51:55.855Z,98965.34
2023-04-14T07:54:22.593Z,98960.56
2023-04-14T07:56:50.263Z,98958.59
2023-04-14T07:59:18.293Z,98961.16
2023-04-14T08:01:46.014Z,98957.25
2023-04-14T08:04:13.052Z,98952.31
2023-04-14T08:06:39.789Z,98963.53
2023-04-14T08:09:06.509Z,98952.47
2023-04-14T08:11:33.186Z,98955.97
2023-04-14T08:13:59.793Z,98956.09
2023-04-14T08:16:28.756Z,98956.38
2023-04-14T08:18:57.717Z,98954.06
2023-04-14T08:21:24.640Z,98962.25
2023-04-14T08:23:51.650Z,98958.34
2023-04-14T08:26:19.293Z,98970.44
2023-04-14T08:28:45.861Z,98971.69
2023-04-14T08:31:13.494Z,98976.34
2023-04-14T08:33:41.540Z,98970.34
2023-04-14T08:36:08.302Z,98971.22
2023-04-14T08:38:34.971Z,98974.28
2023-04-14T08:41:07.160Z,98984.84
2023-04-14T08:43:34.138Z,98976.69
2023-04-14T08:46:01.656Z,98985.16
2023-04-14T08:48:30.552Z,98984.03
2023-04-14T08:51:06.547Z,99001.22
2023-04-14T08:53:33.399Z,98989.56
2023-04-14T08:56:03.710Z,99001.00
2023-04-14T08:58:30.879Z,99004.09
2023-04-14T09:00:58.555Z,99000.72
2023-04-14T09:03:25.458Z,99008.47
2023-04-14T09:05:52.834Z,99007.00
2023-04-14T09:08:21.499Z,99004.13
2023-04-14T09:10:48.750Z,99014.47
2023-04-14T09:13:16.911Z,99010.25
2023-04-14T09:15:43.923Z,99016.63
2023-04-14T09:18:11.168Z,99022.44
2023-04-14T09:20:41.012Z,99014.56
2023-04-14T09:23:09.102Z,99028.34
2023-04-14T09:25:38.160Z,99024.88
2023-04-14T09:28:05.059Z,99027.22
2023-04-14T09:30:32.107Z,99034.56
2023-04-14T09:32:58.938Z,99040.16
2023-04-14T09:35:43.400Z,99037.59
2023-04-14T09:38:10.083Z,99043.28
2023-04-14T09:40:38.103Z,99042.91
2023-04-14T09:43:04.805Z,99047.28
2023-04-14T09:45:43.232Z,99049.94
2023-04-14T09:48:10.601Z,99047.03
2023-04-14T09:50:56.416Z,99057.31
2023-04-14T09:53:25.636Z,99047.63
2023-04-14T09:55:53.831Z,99058.41
2023-04-14T09:58:20.916Z,99051.97
2023-04-14T10:00:47.929Z,99062.22
2023-04-14T10:03:14.736Z,99070.06
2023-04-14T10:05:46.284Z,99064.03
2023-04-14T10:08:12.942Z,99063.22
2023-04-14T10:10:39.792Z,99063.31
2023-04-14T10:13:07.802Z,99068.91
2023-04-14T10:15:34.622Z,99068.41
2023-04-14T10:18:02.021Z,99067.47
2023-04-14T10:20:29.663Z,99056.28
2023-04-14T10:22:56.926Z,99061.56
2023-04-14T10:25:25.615Z,99070.19
2023-04-14T10:27:52.723Z,99066.03
2023-04-14T10:30:21.290Z,99063.59
2023-04-14T10:32:48.216Z,99075.75
2023-04-14T10:35:16.325Z,99078.94
2023-04-14T10:37:49.699Z,99082.97
2023-04-14T10:40:16.297Z,99084.78
2023-04-14T10:42:52.758Z,99089.56
2023-04-14T10:45:21.356Z,99083.78
2023-04-14T10:47:49.312Z,99089.63
2023-04-14T10:50:17.257Z,99094.72
2023-04-14T10:52:50.240Z,99091.13
2023-04-14T10:55:16.896Z,99096.22
2023-04-14T10:57:45.573Z,99093.13
2023-04-14T11:00:31.704Z,99092.88
2023-04-14T11:03:03.075Z,99097.41
2023-04-14T11:05:32.811Z,99093.88
2023-04-14T11:08:02.666Z,99092.59
2023-04-14T11:10:33.078Z,99109.53
2023-04-14T11:13:04.655Z,99108.75
2023-04-14T11:15:51.428Z,99106.66
2023-04-14T11:18:21.203Z,99105.84
2023-04-14T11:20:51.336Z,99112.19
2023-04-14T11:23:18.191Z,99104.53
2023-04-14T11:25:45.063Z,99106.66
2023-04-14T11:28:11.694Z,99103.00
2023-04-14T11:30:40.945Z,99096.88
2023-04-14T11:33:08.963Z,99114.88
2023-04-14T11:35:35.647Z,99106.56
2023-04-14T11:38:02.315Z,99110.75
2023-04-14T11:40:29.004Z,99110.50
2023-04-14T11:42:57.187Z,99117.81
2023-04-14T11:45:28.062Z,99117.81
2023-04-14T11:47:58.752Z,99117.59
2023-04-14T11:50:29.625Z,99119.25
2023-04-14T11:52:56.237Z,99119.53
2023-04-14T11:55:22.905Z,99123.34
2023-04-14T11:57:49.565Z,99130.81
2023-04-14T12:00:16.693Z,99119.53
2023-04-14T12:02:44.413Z,99125.50
2023-04-14T12:05:11.817Z,99127.59
2023-04-14T12:07:42.869Z,99126.06
2023-04-14T12:10:10.795Z,99133.09
2023-04-14T12:12:37.466Z,99139.25
2023-04-14T12:15:05.072Z,99133.44
2023-04-14T12:17:32.102Z,99134.16
2023-04-14T12:19:58.792Z,99142.09
2023-04-14T12:22:26.129Z,99144.22
2023-04-14T12:24:55.310Z,99140.31
2023-04-14T12:27:23.648Z,99144.03
2023-04-14T12:29:51.222Z,99142.66
2023-04-14T12:32:18.436Z,99157.31
2023-04-14T12:34:53.335Z,99146.47
2023-04-14T12:37:24.753Z,99154.06
2023-04-14T12:39:52.317Z,99156.81
2023-04-14T12:42:20.652Z,99151.69
2023-04-14T12:44:58.649Z,99155.00
2023-04-14T12:47:30.217Z,99156.06
2023-04-14T12:49:57.532Z,99158.75
2023-04-14T12:52:37.333Z,99162.44
2023-04-14T12:55:04.988Z,99165.75
2023-04-14T12:57:34.349Z,99167.06
2023-04-14T13:00:01.522Z,99170.91
2023-04-14T13:02:29.095Z,99176.97
2023-04-14T13:04:55.961Z,99172.44
2023-04-14T13:07:23.171Z,99177.78
2023-04-14T13:09:50.338Z,99179.34
2023-04-14T13:12:17.061Z,99186.22
2023-04-14T13:14:45.302Z,99181.38
2023-04-14T13:17:11.962Z,99177.97
2023-04-14T13:19:38.754Z,99185.63
2023-04-14T13:22:05.556Z,99184.78
2023-04-14T13:24:32.240Z,99181.63
2023-04-14T13:26:58.850Z,99187.47
2023-04-14T13:29:25.531Z,99190.22
2023-04-14T13:31:53.673Z,99194.00
2023-04-14T13:34:20.398Z,99195.09
2023-04-14T13:36:47.039Z,99202.78
2023-04-14T13:39:13.708Z,99205.47
2023-04-14T13:41:40.298Z,99193.69
2023-04-14T13:44:06.894Z,99194.03
2023-04-14T13:46:40.496Z,99204.72
2023-04-14T13:49:09.099Z,99206.03
2023-04-14T13:51:35.708Z,99208.47
2023-04-14T13:54:02.311Z,99204.50
2023-04-14T13:56:28.895Z,99206.66
2023-04-14T13:58:56.536Z,99206.44
2023-04-14T14:01:23.341Z,99207.88
2023-04-14T14:03:50.754Z,99205.13
2023-04-14T14:06:19.058Z,99214.50
2023-04-14T14:08:45.745Z,99213.66
2023-04-14T14:11:12.321Z,99220.19
2023-04-14T14:13:39.373Z,99219.91
2023-04-14T14:16:07.103Z,99221.97
2023-04-14T14:18:35.628Z,99218.16
2023-04-14T14:21:02.375Z,99225.38
2023-04-14T14:23:30.582Z,99224.31
2023-04-14T14:25:57.191Z,99220.19
2023-04-14T14:28:23.769Z,99228.50
2023-04-14T14:30:50.370Z,99228.94
2023-04-14T14:33:16.989Z,99228.25
2023-04-14T14:35:44.017Z,99234.34
2023-04-14T14:38:10.697Z,99236.09
2023-04-14T14:40:39.206Z,99231.84
2023-04-14T14:43:05.767Z,99232.59
2023-04-14T14:45:33.345Z,99241.09
2023-04-14T14:48:00.897Z,99234.66
2023-04-14T14:50:27.568Z,99233.19
2023-04-14T14:52:54.136Z,99238.22
2023-04-14T14:55:20.981Z,99240.72
2023-04-14T14:57:49.045Z,99243.81
2023-04-14T15:00:16.136Z,99245.72
2023-04-14T15:02:42.850Z,99246.63
2023-04-14T15:05:09.781Z,99255.50
2023-04-14T15:07:36.445Z,99249.38
2023-04-14T15:10:03.286Z,99254.09
2023-04-14T15:12:29.930Z,99255.50
2023-04-14T15:14:58.085Z,99257.06
2023-04-14T15:17:24.802Z,99258.03
2023-04-14T15:19:51.501Z,99256.09
2023-04-14T15:22:18.170Z,99259.97
2023-04-14T15:24:44.869Z,99264.75
2023-04-14T15:27:11.483Z,99272.38
2023-04-14T15:29:38.106Z,99273.00
2023-04-14T15:32:06.199Z,99284.25
2023-04-14T15:34:32.916Z,99281.03
2023-04-14T15:36:59.588Z,99291.47
2023-04-14T15:39:26.272Z,99290.28
2023-04-14T15:41:52.887Z,99289.75
2023-04-14T15:44:19.643Z,99294.09
2023-04-14T15:46:46.265Z,99298.19
2023-04-14T15:49:14.227Z,99305.38
2023-04-14T15:51:40.962Z,99309.16
2023-04-14T15:54:07.542Z,99308.88
2023-04-14T15:56:34.217Z,99307.81
2023-04-14T15:59:00.974Z,99316.84
2023-04-14T16:01:27.581Z,99310.16
2023-04-14T16:03:54.232Z,99317.75
2023-04-14T16:06:22.234Z,99316.16
2023-04-14T16:08:50.015Z,99322.81
2023-04-14T16:11:16.791Z,99325.16
2023-04-14T16:13:43.513Z,99327.19
2023-04-14T16:16:10.207Z,99325.66
2023-04-14T16:18:36.816Z,99326.75
2023-04-14T16:21:03.868Z,99333.06
2023-04-14T16:23:31.831Z,99327.59
2023-04-14T16:25:58.488Z,99332.00
2023-04-14T16:28:25.216Z,99333.22
2023-04-14T16:30:51.829Z,99339.78
2023-04-14T16:33:18.729Z,99342.91
2023-04-14T16:35:45.289Z,99346.81
2023-04-14T16:38:12.139Z,99346.81
2023-04-14T16:40:40.116Z,99350.16
2023-04-14T16:43:10.158Z,99345.63
2023-04-14T16:45:37.817Z,99354.66
2023-04-14T16:48:04.572Z,99358.25
2023-04-14T16:50:31.230Z,99361.56
2023-04-14T16:52:57.796Z,99362.63
2023-04-14T16:55:24.494Z,99374.06
2023-04-14T16:57:52.481Z,99373.75
2023-04-14T17:00:19.451Z,99382.19
2023-04-14T17:02:46.202Z,99381.34
2023-04-14T17:05:13.225Z,99393.72
2023-04-14T17:07:40.063Z,99394.38
2023-04-14T17:10:07.283Z,99393.13
2023-04-14T17:12:33.989Z,99396.47
2023-04-14T17:15:01.979Z,99401.19
2023-04-14T17:17:28.626Z,99401.53
2023-04-14T17:19:56.858Z,99406.81
2023-04-14T17:22:24.639Z,99406.81
2023-04-14T17:24:51.672Z,99410.63
2023-04-14T17:27:18.393Z,99418.00
2023-04-14T17:29:44.960Z,99412.31
2023-04-14T17:32:13.395Z,99411.28
2023-04-14T17:34:40.258Z,99416.84
2023-04-14T17:37:07.010Z,99423.69
2023-04-14T17:39:33.717Z,99411.53
2023-04-14T17:42:00.333Z,99414.03
2023-04-14T17:44:31.190Z,99415.72
2023-04-14T17:46:57.857Z,99420.47
2023-04-14T17:49:25.886Z,99416.19
2023-04-14T17:51:52.477Z,99418.69
2023-04-14T17:54:20.822Z,99431.94
2023-04-14T17:56:48.298Z,99432.75
2023-04-14T17:59:15.196Z,99433.88
2023-04-14T18:01:41.916Z,99446.66
2023-04-14T18:04:08.991Z,99446.69
2023-04-14T18:06:37.112Z,99448.78
2023-04-14T18:09:04.076Z,99451.31
2023-04-14T18:11:30.739Z,99448.16
2023-04-14T18:13:57.789Z,99449.44
2023-04-14T18:16:24.749Z,99447.72
2023-04-14T18:18:51.359Z,99446.91
2023-04-14T18:21:18.184Z,99447.59
2023-04-14T18:24:47.859Z,99457.41
2023-04-14T18:26:32.719Z,99459.28
2023-04-14T18:28:59.871Z,99466.03
2023-04-14T18:31:26.671Z,99467.09
2023-04-14T18:33:53.240Z,99462.09
2023-04-14T18:36:19.880Z,99471.09
2023-04-14T18:38:47.904Z,99476.75
2023-04-14T18:41:14.514Z,99476.34
2023-04-14T18:43:41.111Z,99485.34
2023-04-14T18:46:08.049Z,99487.88
2023-04-14T18:48:34.742Z,99491.88
2023-04-14T18:51:01.924Z,99497.97
2023-04-14T18:53:28.721Z,99494.78
2023-04-14T18:55:56.732Z,99505.94
2023-04-14T18:58:23.311Z,99511.56
2023-04-14T19:00:50.859Z,99516.66
2023-04-14T19:03:17.594Z,99520.41
2023-04-14T19:05:44.269Z,99525.25
2023-04-14T19:08:10.881Z,99531.06
2023-04-14T19:10:37.537Z,99536.72
2023-04-14T19:13:05.456Z,99543.25
2023-04-14T19:15:32.144Z,99555.59
2023-04-14T19:17:58.860Z,99560.22
2023-04-14T19:20:25.514Z,99569.44
2023-04-14T19:22:52.166Z,99571.09
2023-04-14T19:25:18.897Z,99576.50
2023-04-14T19:27:45.500Z,99570.66
2023-04-14T19:30:14.685Z,99574.03
2023-04-14T19:32:41.671Z,99574.63
2023-04-14T19:35:09.655Z,99576.94
2023-04-14T19:37:37.305Z,99581.13
2023-04-14T19:40:04.961Z,99585.94
2023-04-14T19:42:34.152Z,99583.19
2023-04-14T19:45:02.129Z,99593.03
2023-04-14T19:47:30.158Z,99593.91
2023-04-14T19:49:56.771Z,99607.50
2023-04-14T19:52:23.429Z,99607.91
2023-04-14T19:54:50.100Z,99609.38
2023-04-14T19:57:17.865Z,99614.63
2023-04-14T19:59:44.462Z,99620.06
2023-04-14T20:02:11.111Z,99617.34
2023-04-14T20:04:39.205Z,99621.72
2023-04-14T20:07:05.982Z,99629.50
2023-04-14T20:09:32.641Z,99625.94
2023-04-14T20:12:00.121Z,99625.91
2023-04-14T20:14:26.709Z,99622.13
2023-04-14T20:16:53.432Z,99631.97
2023-04-14T20:19:20.001Z,99640.16
2023-04-14T20:21:47.979Z,99649.63
2023-04-14T20:24:14.617Z,99648.16
2023-04-14T20:26:41.181Z,99654.44
2023-04-14T20:29:07.791Z,99659.88
2023-04-14T20:31:34.384Z,99672.44
2023-04-14T20:34:00.958Z,99672.84
2023-04-14T20:36:27.524Z,99678.09
2023-04-14T20:38:55.462Z,99681.03
2023-04-14T20:41:22.111Z,99675.78
2023-04-14T20:43:48.769Z,99687.09
2023-04-14T20:46:15.686Z,99686.91
2023-04-14T20:48:42.379Z,99682.91
2023-04-14T20:51:08.947Z,99685.22
2023-04-14T20:53:35.833Z,99694.25
2023-04-14T20:56:04.053Z,99693.03
2023-04-14T20:58:30.620Z,99692.19
2023-04-14T21:00:57.241Z,99694.84
2023-04-14T21:03:24.062Z,99695.47
2023-04-14T21:05:50.908Z,99696.78
2023-04-14T21:08:17.485Z,99701.56
2023-04-14T21:11:14.541Z,99706.88
2023-04-14T21:15:41.503Z,99705.59
2023-04-14T21:16:18.681Z,99704.97
2023-04-14T21:18:45.345Z,99715.66
2023-04-14T21:21:12.092Z,99716.50
2023-04-14T21:23:38.754Z,99738.72
2023-04-14T21:26:05.389Z,99743.63
2023-04-14T21:28:33.380Z,99742.53
2023-04-14T21:31:00.209Z,99745.28
2023-04-14T21:33:26.804Z,99750.75
2023-04-14T21:35:54.294Z,99753.28
2023-04-14T21:38:20.946Z,99760.44
2023-04-14T21:40:47.634Z,99761.19
2023-04-14T21:43:14.212Z,99765.41
2023-04-14T21:45:42.378Z,99765.41
2023-04-14T21:48:09.181Z,99766.88
2023-04-14T21:50:36.872Z,99767.53
2023-04-14T21:53:04.544Z,99775.22
2023-04-14T21:55:31.276Z,99775.22
2023-04-14T21:57:58.284Z,99791.75
2023-04-14T22:00:24.946Z,99781.25
2023-04-14T22:02:53.155Z,99790.44
2023-04-14T22:05:19.871Z,99789.97
2023-04-14T22:07:46.613Z,99793.31
2023-04-14T22:10:13.386Z,99796.13
2023-04-14T22:12:40.479Z,99802.59
2023-04-14T22:15:08.154Z,99806.03
2023-04-14T22:17:34.989Z,99797.69
2023-04-14T22:20:05.812Z,99794.03
2023-04-14T22:22:33.749Z,99799.63
2023-04-14T22:25:00.703Z,99804.84
2023-04-14T22:27:27.402Z,99801.16
2023-04-14T22:29:53.998Z,99802.63
2023-04-14T22:32:20.620Z,99793.13
2023-04-14T22:34:47.267Z,99812.56
2023-04-14T22:37:15.291Z,99813.66
2023-04-14T22:39:41.967Z,99822.56
2023-04-14T22:42:08.631Z,99830.31
2023-04-14T22:44:35.240Z,99831.78
2023-04-14T22:47:01.817Z,99822.16
2023-04-14T22:49:28.394Z,99834.06
2023-04-14T22:51:55.044Z,99839.69
2023-04-14T22:54:22.967Z,99838.44
2023-04-14T22:56:49.550Z,99847.44
2023-04-14T22:59:16.174Z,99849.47
2023-04-14T23:01:42.800Z,99846.75
2023-04-14T23:04:09.724Z,99854.34
2023-04-14T23:06:36.720Z,99850.28
2023-04-14T23:09:03.533Z,99847.69
2023-04-14T23:11:31.806Z,99854.94
2023-04-14T23:13:58.405Z,99857.69
2023-04-14T23:16:25.065Z,99852.28
2023-04-14T23:18:51.704Z,99857.00
2023-04-14T23:21:18.955Z,99854.91
2023-04-14T23:23:45.839Z,99865.13
2023-04-14T23:26:13.546Z,99856.44
2023-04-14T23:28:41.555Z,99862.75
2023-04-14T23:31:08.320Z,99865.44
2023-04-14T23:33:34.945Z,99865.44
2023-04-14T23:36:01.545Z,99873.41
2023-04-14T23:38:28.204Z,99882.75
2023-04-14T23:40:54.980Z,99879.84
2023-04-14T23:43:21.637Z,99881.41
2023-04-14T23:45:49.758Z,99882.06
2023-04-14T23:48:16.362Z,99893.44
2023-04-14T23:50:59.889Z,99890.63
2023-04-14T23:53:29.601Z,99896.63
2023-04-14T23:55:56.460Z,99902.34
2023-04-14T23:58:26.750Z,99901.78
